METAR Data
IDs: Format: Raw Decoded Include TAF

Data at: 0024 UTC 30 May 2020

METAR for:KSHL (Sheldon Muni, IA, US)
Text:KSHL 300015Z AUTO 35010KT 10SM CLR 21/05 A3015 RMK AO2
Temperature: 21.0°C ( 70°F)
Dewpoint: 5.0°C ( 41°F) [RH = 35%]
Pressure (altimeter):30.15 inches Hg (1021.1 mb)
Winds:from the N (350 degrees) at 12 MPH (10 knots; 5.1 m/s)
Visibility:10 or more sm (16+ km)
Ceiling:at least 12,000 feet AGL
Clouds:sky clear below 12,000 feet AGL
QC Flag:automated observation with no human augmentation